Cumana, Venezuela
Current Conditions -  °F | °C
As of 11:00 AM on Monday 22 Dec 2014 (Local Time) from SVCU Reporting Station
Broken Clouds Broken Clouds  
Wind Chill: 86°   Ceiling: 1300
Heat Index: 88°   Visibility: 6mi
Dew Point: 66°   Wind: 13mph
Humidity: 51%   Direction: 70°ENE
Pressure: 29.94"   Gusts: NA
Location:  10.45°N, 64.18°W
Report Text: SVCU 221500Z 07011KT 9999 BKN013 30/19 Q1014
Loading
Personal Weather Stations






























Interactive Weather Map New forecast layout! Learn more

10-Day Weather Forecast

Advertisements
Track Severe Weather on mobile